sensor_id;sensor_type;location;lat;lon;timestamp;P1;durP1;ratioP1;P2;durP2;ratioP2
21546;SDS011;41275;51.912;4.388;2022-12-18T00:02:32;70.23;;;24.17;;
21546;SDS011;41275;51.912;4.388;2022-12-18T00:07:53;64.70;;;22.30;;
21546;SDS011;41275;51.912;4.388;2022-12-18T00:13:14;56.00;;;21.03;;
21546;SDS011;41275;51.912;4.388;2022-12-18T00:18:35;62.55;;;21.80;;
21546;SDS011;41275;51.912;4.388;2022-12-18T00:23:57;58.88;;;21.15;;
21546;SDS011;41275;51.912;4.388;2022-12-18T00:29:19;57.25;;;21.15;;
21546;SDS011;41275;51.912;4.388;2022-12-18T00:34:40;56.65;;;20.35;;
21546;SDS011;41275;51.912;4.388;2022-12-18T00:40:01;57.10;;;21.40;;
21546;SDS011;41275;51.912;4.388;2022-12-18T00:45:27;60.28;;;22.55;;
21546;SDS011;41275;51.912;4.388;2022-12-18T00:50:50;58.40;;;22.33;;
21546;SDS011;41275;51.912;4.388;2022-12-18T00:56:12;61.50;;;21.85;;
21546;SDS011;41275;51.912;4.388;2022-12-18T01:01:33;65.68;;;23.50;;
21546;SDS011;41275;51.912;4.388;2022-12-18T01:06:54;67.45;;;22.15;;
21546;SDS011;41275;51.912;4.388;2022-12-18T01:12:16;66.72;;;22.48;;
21546;SDS011;41275;51.912;4.388;2022-12-18T01:17:37;67.13;;;21.63;;
21546;SDS011;41275;51.912;4.388;2022-12-18T01:22:58;74.53;;;24.40;;
21546;SDS011;41275;51.912;4.388;2022-12-18T01:28:20;75.03;;;24.63;;
21546;SDS011;41275;51.912;4.388;2022-12-18T01:33:41;73.88;;;24.80;;
21546;SDS011;41275;51.912;4.388;2022-12-18T01:39:05;66.93;;;23.17;;
21546;SDS011;41275;51.912;4.388;2022-12-18T01:44:51;64.43;;;21.33;;
21546;SDS011;41275;51.912;4.388;2022-12-18T01:50:44;58.33;;;20.30;;
21546;SDS011;41275;51.912;4.388;2022-12-18T01:56:05;71.05;;;22.45;;
21546;SDS011;41275;51.912;4.388;2022-12-18T02:01:27;61.15;;;20.77;;
21546;SDS011;41275;51.912;4.388;2022-12-18T02:06:52;55.38;;;19.88;;
21546;SDS011;41275;51.912;4.388;2022-12-18T02:12:23;60.08;;;20.60;;
21546;SDS011;41275;51.912;4.388;2022-12-18T02:17:50;61.13;;;20.85;;
21546;SDS011;41275;51.912;4.388;2022-12-18T02:29:00;66.07;;;22.48;;
21546;SDS011;41275;51.912;4.388;2022-12-18T02:34:26;67.50;;;23.33;;
21546;SDS011;41275;51.912;4.388;2022-12-18T02:39:51;65.68;;;22.95;;
21546;SDS011;41275;51.912;4.388;2022-12-18T02:45:16;61.58;;;22.60;;
21546;SDS011;41275;51.912;4.388;2022-12-18T02:50:43;65.10;;;22.27;;
21546;SDS011;41275;51.912;4.388;2022-12-18T02:56:14;59.92;;;22.02;;
21546;SDS011;41275;51.912;4.388;2022-12-18T03:01:50;58.10;;;21.50;;
21546;SDS011;41275;51.912;4.388;2022-12-18T03:07:19;54.65;;;21.25;;
21546;SDS011;41275;51.912;4.388;2022-12-18T03:12:54;54.20;;;19.92;;
21546;SDS011;41275;51.912;4.388;2022-12-18T03:19:08;53.77;;;20.63;;
21546;SDS011;41275;51.912;4.388;2022-12-18T03:24:07;50.13;;;20.42;;
21546;SDS011;41275;51.912;4.388;2022-12-18T03:29:34;51.70;;;19.70;;
21546;SDS011;41275;51.912;4.388;2022-12-18T03:35:01;48.65;;;19.67;;
21546;SDS011;41275;51.912;4.388;2022-12-18T03:40:35;50.23;;;20.00;;
21546;SDS011;41275;51.912;4.388;2022-12-18T03:46:11;49.72;;;18.65;;
21546;SDS011;41275;51.912;4.388;2022-12-18T03:57:04;47.65;;;18.55;;
21546;SDS011;41275;51.912;4.388;2022-12-18T04:02:30;48.65;;;19.75;;
21546;SDS011;41275;51.912;4.388;2022-12-18T04:07:53;45.10;;;18.83;;
21546;SDS011;41275;51.912;4.388;2022-12-18T04:13:50;46.42;;;18.23;;
21546;SDS011;41275;51.912;4.388;2022-12-18T04:19:04;46.65;;;17.92;;
21546;SDS011;41275;51.912;4.388;2022-12-18T04:24:25;44.75;;;16.95;;
21546;SDS011;41275;51.912;4.388;2022-12-18T04:29:47;46.83;;;17.23;;
21546;SDS011;41275;51.912;4.388;2022-12-18T04:35:08;43.67;;;17.07;;
21546;SDS011;41275;51.912;4.388;2022-12-18T04:40:31;45.30;;;16.93;;
21546;SDS011;41275;51.912;4.388;2022-12-18T04:46:05;43.65;;;16.75;;
21546;SDS011;41275;51.912;4.388;2022-12-18T04:51:27;43.45;;;16.92;;
21546;SDS011;41275;51.912;4.388;2022-12-18T04:56:48;41.05;;;16.02;;
21546;SDS011;41275;51.912;4.388;2022-12-18T05:02:10;43.10;;;16.63;;
21546;SDS011;41275;51.912;4.388;2022-12-18T05:07:31;41.67;;;16.77;;
21546;SDS011;41275;51.912;4.388;2022-12-18T05:12:52;41.47;;;16.33;;
21546;SDS011;41275;51.912;4.388;2022-12-18T05:18:19;40.88;;;16.13;;
21546;SDS011;41275;51.912;4.388;2022-12-18T05:23:41;38.47;;;16.40;;
21546;SDS011;41275;51.912;4.388;2022-12-18T05:29:02;40.92;;;16.58;;
21546;SDS011;41275;51.912;4.388;2022-12-18T05:34:23;41.33;;;16.60;;
21546;SDS011;41275;51.912;4.388;2022-12-18T05:39:44;35.38;;;15.27;;
21546;SDS011;41275;51.912;4.388;2022-12-18T05:45:06;34.77;;;14.77;;
21546;SDS011;41275;51.912;4.388;2022-12-18T05:50:27;38.23;;;15.50;;
21546;SDS011;41275;51.912;4.388;2022-12-18T05:55:48;36.35;;;15.57;;
21546;SDS011;41275;51.912;4.388;2022-12-18T06:01:19;34.22;;;14.30;;
21546;SDS011;41275;51.912;4.388;2022-12-18T06:06:42;34.40;;;14.93;;
21546;SDS011;41275;51.912;4.388;2022-12-18T06:12:04;35.38;;;14.38;;
21546;SDS011;41275;51.912;4.388;2022-12-18T06:17:28;34.97;;;14.68;;
21546;SDS011;41275;51.912;4.388;2022-12-18T06:22:50;32.83;;;14.03;;
21546;SDS011;41275;51.912;4.388;2022-12-18T06:28:11;29.30;;;13.48;;
21546;SDS011;41275;51.912;4.388;2022-12-18T06:33:33;34.17;;;13.80;;
21546;SDS011;41275;51.912;4.388;2022-12-18T06:38:55;27.92;;;13.27;;
21546;SDS011;41275;51.912;4.388;2022-12-18T06:44:17;29.02;;;13.52;;
21546;SDS011;41275;51.912;4.388;2022-12-18T06:49:38;27.30;;;12.43;;
21546;SDS011;41275;51.912;4.388;2022-12-18T06:55:00;28.73;;;12.57;;
21546;SDS011;41275;51.912;4.388;2022-12-18T07:00:21;29.95;;;13.73;;
21546;SDS011;41275;51.912;4.388;2022-12-18T07:05:42;24.70;;;12.63;;
21546;SDS011;41275;51.912;4.388;2022-12-18T07:11:04;29.45;;;13.40;;
21546;SDS011;41275;51.912;4.388;2022-12-18T07:16:25;26.42;;;12.38;;
21546;SDS011;41275;51.912;4.388;2022-12-18T07:21:49;27.90;;;13.07;;
21546;SDS011;41275;51.912;4.388;2022-12-18T07:27:11;27.10;;;12.57;;
21546;SDS011;41275;51.912;4.388;2022-12-18T07:32:32;28.58;;;12.63;;
21546;SDS011;41275;51.912;4.388;2022-12-18T07:37:53;26.08;;;12.07;;
21546;SDS011;41275;51.912;4.388;2022-12-18T07:43:14;25.70;;;11.27;;
21546;SDS011;41275;51.912;4.388;2022-12-18T07:48:35;24.52;;;10.85;;
21546;SDS011;41275;51.912;4.388;2022-12-18T07:53:57;25.10;;;11.80;;
21546;SDS011;41275;51.912;4.388;2022-12-18T07:59:18;22.53;;;11.33;;
21546;SDS011;41275;51.912;4.388;2022-12-18T08:04:39;21.55;;;10.63;;
21546;SDS011;41275;51.912;4.388;2022-12-18T08:10:00;24.02;;;11.10;;
21546;SDS011;41275;51.912;4.388;2022-12-18T08:15:21;24.57;;;11.37;;
21546;SDS011;41275;51.912;4.388;2022-12-18T08:20:43;21.40;;;10.80;;
21546;SDS011;41275;51.912;4.388;2022-12-18T08:26:04;23.73;;;10.88;;
21546;SDS011;41275;51.912;4.388;2022-12-18T08:31:26;22.15;;;10.75;;
21546;SDS011;41275;51.912;4.388;2022-12-18T08:36:48;23.80;;;10.60;;
21546;SDS011;41275;51.912;4.388;2022-12-18T08:42:09;24.35;;;10.20;;
21546;SDS011;41275;51.912;4.388;2022-12-18T08:47:49;20.73;;;9.52;;
21546;SDS011;41275;51.912;4.388;2022-12-18T08:53:10;22.10;;;10.00;;
21546;SDS011;41275;51.912;4.388;2022-12-18T08:58:31;20.80;;;10.10;;
21546;SDS011;41275;51.912;4.388;2022-12-18T09:03:53;22.55;;;9.93;;
21546;SDS011;41275;51.912;4.388;2022-12-18T09:09:14;21.08;;;10.68;;
21546;SDS011;41275;51.912;4.388;2022-12-18T09:14:35;19.87;;;10.17;;
21546;SDS011;41275;51.912;4.388;2022-12-18T09:19:57;21.07;;;10.03;;
21546;SDS011;41275;51.912;4.388;2022-12-18T09:25:18;21.50;;;10.52;;
21546;SDS011;41275;51.912;4.388;2022-12-18T09:30:39;20.95;;;10.27;;
21546;SDS011;41275;51.912;4.388;2022-12-18T09:36:03;20.65;;;9.90;;
21546;SDS011;41275;51.912;4.388;2022-12-18T09:47:06;21.33;;;9.93;;
21546;SDS011;41275;51.912;4.388;2022-12-18T09:52:37;19.83;;;9.40;;
21546;SDS011;41275;51.912;4.388;2022-12-18T09:58:06;19.50;;;9.87;;
21546;SDS011;41275;51.912;4.388;2022-12-18T10:03:35;18.23;;;9.23;;
21546;SDS011;41275;51.912;4.388;2022-12-18T10:08:59;17.80;;;9.43;;
21546;SDS011;41275;51.912;4.388;2022-12-18T10:20:05;17.60;;;9.30;;
21546;SDS011;41275;51.912;4.388;2022-12-18T10:31:18;20.23;;;10.02;;
21546;SDS011;41275;51.912;4.388;2022-12-18T10:36:41;18.05;;;8.85;;
21546;SDS011;41275;51.912;4.388;2022-12-18T10:42:11;18.63;;;9.03;;
21546;SDS011;41275;51.912;4.388;2022-12-18T10:47:42;16.52;;;8.93;;
21546;SDS011;41275;51.912;4.388;2022-12-18T10:53:13;15.93;;;8.13;;
21546;SDS011;41275;51.912;4.388;2022-12-18T10:58:40;18.30;;;9.43;;
21546;SDS011;41275;51.912;4.388;2022-12-18T11:04:04;17.30;;;9.23;;
21546;SDS011;41275;51.912;4.388;2022-12-18T11:09:30;18.98;;;8.48;;
21546;SDS011;41275;51.912;4.388;2022-12-18T11:14:53;19.93;;;9.73;;
21546;SDS011;41275;51.912;4.388;2022-12-18T11:20:20;16.55;;;8.85;;
21546;SDS011;41275;51.912;4.388;2022-12-18T11:25:52;17.80;;;8.65;;
21546;SDS011;41275;51.912;4.388;2022-12-18T11:36:44;19.52;;;9.90;;
21546;SDS011;41275;51.912;4.388;2022-12-18T11:47:35;20.58;;;9.13;;
21546;SDS011;41275;51.912;4.388;2022-12-18T11:53:01;16.77;;;8.93;;
21546;SDS011;41275;51.912;4.388;2022-12-18T12:09:53;17.42;;;9.52;;
21546;SDS011;41275;51.912;4.388;2022-12-18T12:21:15;16.60;;;9.02;;
21546;SDS011;41275;51.912;4.388;2022-12-18T12:32:36;18.85;;;9.40;;
21546;SDS011;41275;51.912;4.388;2022-12-18T12:38:15;18.23;;;8.90;;
21546;SDS011;41275;51.912;4.388;2022-12-18T12:43:43;18.98;;;9.93;;
21546;SDS011;41275;51.912;4.388;2022-12-18T12:49:12;21.17;;;12.73;;
21546;SDS011;41275;51.912;4.388;2022-12-18T12:54:36;17.95;;;10.18;;
21546;SDS011;41275;51.912;4.388;2022-12-18T13:00:05;19.42;;;10.88;;
21546;SDS011;41275;51.912;4.388;2022-12-18T13:11:14;29.23;;;15.25;;
21546;SDS011;41275;51.912;4.388;2022-12-18T13:17:17;23.67;;;13.60;;
21546;SDS011;41275;51.912;4.388;2022-12-18T13:22:49;18.95;;;9.98;;
21546;SDS011;41275;51.912;4.388;2022-12-18T13:44:35;18.80;;;10.17;;
21546;SDS011;41275;51.912;4.388;2022-12-18T13:50:02;19.00;;;10.27;;
21546;SDS011;41275;51.912;4.388;2022-12-18T13:55:39;17.07;;;9.77;;
21546;SDS011;41275;51.912;4.388;2022-12-18T14:01:15;17.83;;;9.25;;
21546;SDS011;41275;51.912;4.388;2022-12-18T14:06:42;20.07;;;9.90;;
21546;SDS011;41275;51.912;4.388;2022-12-18T14:12:03;19.38;;;9.40;;
21546;SDS011;41275;51.912;4.388;2022-12-18T14:17:45;19.40;;;9.68;;
21546;SDS011;41275;51.912;4.388;2022-12-18T14:23:24;19.73;;;9.90;;
21546;SDS011;41275;51.912;4.388;2022-12-18T14:28:47;18.73;;;10.32;;
21546;SDS011;41275;51.912;4.388;2022-12-18T14:34:14;24.42;;;13.00;;
21546;SDS011;41275;51.912;4.388;2022-12-18T14:39:36;20.27;;;10.10;;
21546;SDS011;41275;51.912;4.388;2022-12-18T14:51:42;20.70;;;10.13;;
21546;SDS011;41275;51.912;4.388;2022-12-18T14:56:49;18.58;;;9.65;;
21546;SDS011;41275;51.912;4.388;2022-12-18T15:02:22;18.02;;;9.93;;
21546;SDS011;41275;51.912;4.388;2022-12-18T15:07:48;19.07;;;10.13;;
21546;SDS011;41275;51.912;4.388;2022-12-18T15:13:20;19.77;;;10.80;;
21546;SDS011;41275;51.912;4.388;2022-12-18T15:18:43;23.00;;;12.20;;
21546;SDS011;41275;51.912;4.388;2022-12-18T15:24:13;20.17;;;10.30;;
21546;SDS011;41275;51.912;4.388;2022-12-18T15:29:38;40.28;;;20.15;;
21546;SDS011;41275;51.912;4.388;2022-12-18T15:40:30;20.60;;;10.30;;
21546;SDS011;41275;51.912;4.388;2022-12-18T15:45:51;23.20;;;11.90;;
21546;SDS011;41275;51.912;4.388;2022-12-18T15:56:53;31.45;;;15.75;;
21546;SDS011;41275;51.912;4.388;2022-12-18T16:02:33;23.85;;;11.82;;
21546;SDS011;41275;51.912;4.388;2022-12-18T16:07:54;21.20;;;10.80;;
21546;SDS011;41275;51.912;4.388;2022-12-18T16:13:15;21.70;;;11.02;;
21546;SDS011;41275;51.912;4.388;2022-12-18T16:18:40;20.65;;;12.23;;
21546;SDS011;41275;51.912;4.388;2022-12-18T16:24:01;27.10;;;13.03;;
21546;SDS011;41275;51.912;4.388;2022-12-18T16:29:23;19.98;;;11.50;;
21546;SDS011;41275;51.912;4.388;2022-12-18T16:34:47;20.52;;;11.15;;
21546;SDS011;41275;51.912;4.388;2022-12-18T16:40:10;22.45;;;12.38;;
21546;SDS011;41275;51.912;4.388;2022-12-18T16:45:33;23.03;;;12.00;;
21546;SDS011;41275;51.912;4.388;2022-12-18T16:50:59;25.58;;;13.45;;
21546;SDS011;41275;51.912;4.388;2022-12-18T16:56:22;37.40;;;17.53;;
21546;SDS011;41275;51.912;4.388;2022-12-18T17:01:44;25.00;;;13.53;;
21546;SDS011;41275;51.912;4.388;2022-12-18T17:07:05;29.55;;;14.77;;
21546;SDS011;41275;51.912;4.388;2022-12-18T17:12:26;24.30;;;12.13;;
21546;SDS011;41275;51.912;4.388;2022-12-18T17:17:48;23.33;;;12.15;;
21546;SDS011;41275;51.912;4.388;2022-12-18T17:23:09;24.47;;;11.90;;
21546;SDS011;41275;51.912;4.388;2022-12-18T17:28:30;26.10;;;12.90;;
21546;SDS011;41275;51.912;4.388;2022-12-18T17:33:51;24.60;;;12.35;;
21546;SDS011;41275;51.912;4.388;2022-12-18T17:39:15;26.67;;;13.33;;
21546;SDS011;41275;51.912;4.388;2022-12-18T17:44:38;27.02;;;13.98;;
21546;SDS011;41275;51.912;4.388;2022-12-18T17:49:59;23.17;;;12.00;;
21546;SDS011;41275;51.912;4.388;2022-12-18T17:55:21;25.30;;;12.57;;
21546;SDS011;41275;51.912;4.388;2022-12-18T18:00:42;29.63;;;15.27;;
21546;SDS011;41275;51.912;4.388;2022-12-18T18:06:03;40.30;;;18.88;;
21546;SDS011;41275;51.912;4.388;2022-12-18T18:11:25;31.10;;;15.30;;
21546;SDS011;41275;51.912;4.388;2022-12-18T18:17:04;28.90;;;15.73;;
21546;SDS011;41275;51.912;4.388;2022-12-18T18:22:25;36.23;;;18.37;;
21546;SDS011;41275;51.912;4.388;2022-12-18T18:27:46;37.97;;;18.05;;
21546;SDS011;41275;51.912;4.388;2022-12-18T18:33:08;30.57;;;15.73;;
21546;SDS011;41275;51.912;4.388;2022-12-18T18:38:29;35.75;;;15.98;;
21546;SDS011;41275;51.912;4.388;2022-12-18T18:43:54;27.25;;;14.18;;
21546;SDS011;41275;51.912;4.388;2022-12-18T18:49:16;31.02;;;14.57;;
21546;SDS011;41275;51.912;4.388;2022-12-18T18:54:38;30.57;;;15.00;;
21546;SDS011;41275;51.912;4.388;2022-12-18T18:59:59;28.10;;;14.15;;
21546;SDS011;41275;51.912;4.388;2022-12-18T19:05:20;27.10;;;13.83;;
21546;SDS011;41275;51.912;4.388;2022-12-18T19:10:42;27.98;;;14.10;;
21546;SDS011;41275;51.912;4.388;2022-12-18T19:16:05;28.03;;;14.17;;
21546;SDS011;41275;51.912;4.388;2022-12-18T19:21:28;28.35;;;14.75;;
21546;SDS011;41275;51.912;4.388;2022-12-18T19:26:49;28.95;;;15.35;;
21546;SDS011;41275;51.912;4.388;2022-12-18T19:32:11;28.40;;;14.23;;
21546;SDS011;41275;51.912;4.388;2022-12-18T19:37:33;29.65;;;14.85;;
21546;SDS011;41275;51.912;4.388;2022-12-18T19:42:54;30.88;;;15.13;;
21546;SDS011;41275;51.912;4.388;2022-12-18T19:48:16;31.63;;;14.80;;
21546;SDS011;41275;51.912;4.388;2022-12-18T19:53:37;28.60;;;14.52;;
21546;SDS011;41275;51.912;4.388;2022-12-18T19:58:58;28.67;;;14.40;;
21546;SDS011;41275;51.912;4.388;2022-12-18T20:04:20;32.60;;;15.30;;
21546;SDS011;41275;51.912;4.388;2022-12-18T20:09:41;29.60;;;14.80;;
21546;SDS011;41275;51.912;4.388;2022-12-18T20:15:02;30.90;;;15.38;;
21546;SDS011;41275;51.912;4.388;2022-12-18T20:20:24;31.60;;;15.30;;
21546;SDS011;41275;51.912;4.388;2022-12-18T20:25:45;32.67;;;14.50;;
21546;SDS011;41275;51.912;4.388;2022-12-18T20:31:06;31.23;;;16.07;;
21546;SDS011;41275;51.912;4.388;2022-12-18T20:36:28;31.00;;;15.17;;
21546;SDS011;41275;51.912;4.388;2022-12-18T20:41:49;32.10;;;15.93;;
21546;SDS011;41275;51.912;4.388;2022-12-18T20:47:10;29.57;;;14.47;;
21546;SDS011;41275;51.912;4.388;2022-12-18T20:52:31;36.42;;;17.98;;
21546;SDS011;41275;51.912;4.388;2022-12-18T20:57:53;31.08;;;15.25;;
21546;SDS011;41275;51.912;4.388;2022-12-18T21:03:14;34.80;;;15.68;;
21546;SDS011;41275;51.912;4.388;2022-12-18T21:08:36;32.95;;;14.90;;
21546;SDS011;41275;51.912;4.388;2022-12-18T21:13:57;34.30;;;15.30;;
21546;SDS011;41275;51.912;4.388;2022-12-18T21:19:19;31.45;;;15.23;;
21546;SDS011;41275;51.912;4.388;2022-12-18T21:24:45;33.73;;;15.23;;
21546;SDS011;41275;51.912;4.388;2022-12-18T21:30:06;31.30;;;15.15;;
21546;SDS011;41275;51.912;4.388;2022-12-18T21:35:28;30.92;;;15.32;;
21546;SDS011;41275;51.912;4.388;2022-12-18T21:40:49;32.38;;;15.18;;
21546;SDS011;41275;51.912;4.388;2022-12-18T21:46:10;31.53;;;15.17;;
21546;SDS011;41275;51.912;4.388;2022-12-18T21:51:32;31.33;;;14.85;;
21546;SDS011;41275;51.912;4.388;2022-12-18T21:56:57;33.40;;;15.32;;
21546;SDS011;41275;51.912;4.388;2022-12-18T22:02:20;34.57;;;15.43;;
21546;SDS011;41275;51.912;4.388;2022-12-18T22:07:42;29.52;;;14.68;;
21546;SDS011;41275;51.912;4.388;2022-12-18T22:13:04;34.00;;;14.90;;
21546;SDS011;41275;51.912;4.388;2022-12-18T22:18:26;32.03;;;14.60;;
21546;SDS011;41275;51.912;4.388;2022-12-18T22:23:53;29.67;;;13.80;;
21546;SDS011;41275;51.912;4.388;2022-12-18T22:29:17;31.27;;;14.80;;
21546;SDS011;41275;51.912;4.388;2022-12-18T22:34:59;28.85;;;14.32;;
21546;SDS011;41275;51.912;4.388;2022-12-18T22:40:22;30.53;;;13.53;;
21546;SDS011;41275;51.912;4.388;2022-12-18T22:45:46;32.63;;;14.27;;
21546;SDS011;41275;51.912;4.388;2022-12-18T22:51:12;28.80;;;14.27;;
21546;SDS011;41275;51.912;4.388;2022-12-18T22:56:35;28.80;;;14.33;;
21546;SDS011;41275;51.912;4.388;2022-12-18T23:01:56;28.60;;;13.40;;
21546;SDS011;41275;51.912;4.388;2022-12-18T23:07:18;28.63;;;14.27;;
21546;SDS011;41275;51.912;4.388;2022-12-18T23:12:39;30.80;;;14.55;;
21546;SDS011;41275;51.912;4.388;2022-12-18T23:18:00;32.37;;;13.73;;
21546;SDS011;41275;51.912;4.388;2022-12-18T23:23:21;31.95;;;13.80;;
21546;SDS011;41275;51.912;4.388;2022-12-18T23:28:42;29.08;;;13.27;;
21546;SDS011;41275;51.912;4.388;2022-12-18T23:34:04;29.70;;;13.90;;
21546;SDS011;41275;51.912;4.388;2022-12-18T23:39:27;29.00;;;13.70;;
21546;SDS011;41275;51.912;4.388;2022-12-18T23:44:48;31.00;;;14.18;;
21546;SDS011;41275;51.912;4.388;2022-12-18T23:50:10;26.67;;;13.60;;
21546;SDS011;41275;51.912;4.388;2022-12-18T23:55:31;28.25;;;13.45;;
